createdAt,value
2023-03-27T00:02:41.997Z,-0.58
2023-03-27T00:05:48.178Z,-0.56
2023-03-27T00:08:53.580Z,-0.49
2023-03-27T00:11:59.157Z,-0.51
2023-03-27T00:15:06.189Z,-0.56
2023-03-27T00:18:13.470Z,-0.64
2023-03-27T00:21:18.487Z,-0.80
2023-03-27T00:24:23.760Z,-0.63
2023-03-27T00:27:28.720Z,-0.55
2023-03-27T00:30:35.457Z,-0.52
2023-03-27T00:33:40.900Z,-0.60
2023-03-27T00:36:51.176Z,-0.50
2023-03-27T00:39:56.619Z,-0.70
2023-03-27T00:43:01.666Z,-0.60
2023-03-27T00:46:18.471Z,-0.55
2023-03-27T00:49:24.761Z,-0.78
2023-03-27T00:55:56.501Z,-0.79
2023-03-27T00:59:03.873Z,-0.71
2023-03-27T01:02:11.463Z,-0.69
2023-03-27T01:05:16.869Z,-0.59
2023-03-27T01:08:24.914Z,-0.60
2023-03-27T01:11:40.264Z,-1.05
2023-03-27T01:14:55.610Z,-0.71
2023-03-27T01:18:16.018Z,-0.72
2023-03-27T01:21:48.586Z,-0.65
2023-03-27T01:25:04.332Z,-0.91
2023-03-27T01:28:34.546Z,-0.86
2023-03-27T01:32:08.418Z,-0.60
2023-03-27T01:35:43.459Z,-0.77
2023-03-27T01:39:16.643Z,-0.71
2023-03-27T01:42:24.850Z,-1.01
2023-03-27T01:45:35.203Z,-0.85
2023-03-27T01:48:44.937Z,-0.91
2023-03-27T01:51:53.583Z,-0.97
2023-03-27T01:55:05.146Z,-0.90
2023-03-27T01:58:16.845Z,-1.02
2023-03-27T02:01:26.071Z,-1.01
2023-03-27T02:04:34.945Z,-0.99
2023-03-27T02:07:45.426Z,-0.97
2023-03-27T02:10:55.347Z,-1.02
2023-03-27T02:14:03.903Z,-0.89
2023-03-27T02:17:13.866Z,-0.84
2023-03-27T02:20:20.521Z,-0.91
2023-03-27T02:23:25.730Z,-0.91
2023-03-27T02:26:32.680Z,-0.89
2023-03-27T02:29:48.851Z,-0.72
2023-03-27T02:32:59.020Z,-1.13
2023-03-27T02:36:14.514Z,-0.91
2023-03-27T02:39:28.153Z,-0.80
2023-03-27T02:42:42.548Z,-0.95
2023-03-27T02:45:53.108Z,-0.91
2023-03-27T02:48:59.457Z,-1.11
2023-03-27T02:52:09.054Z,-0.99
2023-03-27T02:55:17.635Z,-0.91
2023-03-27T02:58:30.753Z,-1.05
2023-03-27T03:01:45.269Z,-0.83
2023-03-27T03:05:04.320Z,-1.03
2023-03-27T03:08:16.920Z,-0.92
2023-03-27T03:11:23.990Z,-1.17
2023-03-27T03:14:33.547Z,-1.26
2023-03-27T03:17:38.635Z,-1.11
2023-03-27T03:20:44.555Z,-1.23
2023-03-27T03:23:58.274Z,-0.99
2023-03-27T03:27:05.915Z,-1.15
2023-03-27T03:30:23.746Z,-1.21
2023-03-27T03:33:45.528Z,-1.27
2023-03-27T03:36:50.934Z,-1.24
2023-03-27T03:40:00.744Z,-1.36
2023-03-27T03:43:06.281Z,-1.13
2023-03-27T03:46:14.447Z,-1.38
2023-03-27T03:49:19.665Z,-1.37
2023-03-27T03:52:24.816Z,-1.30
2023-03-27T03:55:30.023Z,-1.49
2023-03-27T03:58:35.395Z,-1.49
2023-03-27T04:01:46.140Z,-1.31
2023-03-27T04:04:51.544Z,-1.31
2023-03-27T04:07:59.466Z,-1.38
2023-03-27T04:11:04.703Z,-1.34
2023-03-27T04:14:28.543Z,-1.19
2023-03-27T04:17:38.473Z,-1.52
2023-03-27T04:20:50.046Z,-1.56
2023-03-27T04:24:02.914Z,-1.54
2023-03-27T04:27:23.959Z,-1.61
2023-03-27T04:30:37.030Z,-1.61
2023-03-27T04:34:20.579Z,-1.73
2023-03-27T04:37:45.169Z,-1.85
2023-03-27T04:41:08.477Z,-1.64
2023-03-27T04:44:13.939Z,-1.76
2023-03-27T04:47:21.546Z,-1.59
2023-03-27T04:50:31.157Z,-1.46
2023-03-27T04:53:38.136Z,-1.67
2023-03-27T04:56:45.603Z,-1.75
2023-03-27T04:59:50.855Z,-1.81
2023-03-27T05:03:19.049Z,-1.50
2023-03-27T05:06:40.723Z,-1.74
2023-03-27T05:09:50.611Z,-1.78
2023-03-27T05:12:58.306Z,-1.75
2023-03-27T05:16:04.008Z,-1.48
2023-03-27T05:19:19.535Z,-1.37
2023-03-27T05:22:31.955Z,-1.42
2023-03-27T05:26:00.138Z,-1.68
2023-03-27T05:29:21.777Z,-1.61
2023-03-27T05:32:38.196Z,-1.68
2023-03-27T05:35:53.525Z,-1.84
2023-03-27T05:39:00.653Z,-1.74
2023-03-27T05:42:18.132Z,-1.83
2023-03-27T05:45:24.621Z,-1.87
2023-03-27T05:48:29.810Z,-1.95
2023-03-27T05:51:38.653Z,-1.93
2023-03-27T05:54:55.204Z,-1.74
2023-03-27T05:58:00.929Z,-1.67
2023-03-27T06:01:06.793Z,-1.66
2023-03-27T06:04:12.887Z,-1.62
2023-03-27T06:07:41.620Z,-2.05
2023-03-27T06:10:50.067Z,-1.84
2023-03-27T06:14:02.270Z,-2.16
2023-03-27T06:17:21.600Z,-1.73
2023-03-27T06:20:32.040Z,-1.59
2023-03-27T06:23:38.808Z,-1.97
2023-03-27T06:26:50.670Z,-1.99
2023-03-27T06:29:55.753Z,-2.12
2023-03-27T06:33:01.762Z,-2.16
2023-03-27T06:36:08.714Z,-1.65
2023-03-27T06:39:15.356Z,-1.66
2023-03-27T06:42:28.246Z,-1.61
2023-03-27T06:45:45.725Z,-1.60
2023-03-27T06:49:09.487Z,-1.29
2023-03-27T06:52:14.868Z,-1.35
2023-03-27T06:55:22.899Z,-1.48
2023-03-27T06:58:33.182Z,-1.40
2023-03-27T07:01:38.451Z,-1.53
2023-03-27T07:05:05.221Z,-1.58
2023-03-27T07:08:24.534Z,-1.37
2023-03-27T07:11:32.876Z,-1.45
2023-03-27T07:14:47.293Z,-1.38
2023-03-27T07:17:56.790Z,-1.42
2023-03-27T07:21:02.144Z,-1.46
2023-03-27T07:24:07.763Z,-1.12
2023-03-27T07:27:16.867Z,-1.08
2023-03-27T07:30:25.072Z,-1.09
2023-03-27T07:33:30.878Z,-1.31
2023-03-27T07:36:36.503Z,-1.34
2023-03-27T07:39:44.491Z,-1.05
2023-03-27T07:42:50.664Z,-0.90
2023-03-27T07:45:59.068Z,-0.64
2023-03-27T07:49:05.300Z,-0.99
2023-03-27T07:52:14.716Z,-0.96
2023-03-27T07:55:31.348Z,-1.11
2023-03-27T07:58:43.360Z,-0.68
2023-03-27T08:01:50.760Z,-0.95
2023-03-27T08:04:57.714Z,-1.53
2023-03-27T08:08:03.043Z,-1.23
2023-03-27T08:11:30.836Z,-1.21
2023-03-27T08:14:36.958Z,-0.82
2023-03-27T08:17:55.187Z,-0.99
2023-03-27T08:21:05.863Z,-0.96
2023-03-27T08:24:12.547Z,-0.87
2023-03-27T08:27:36.426Z,-0.76
2023-03-27T08:30:41.956Z,-1.04
2023-03-27T08:33:49.463Z,-0.90
2023-03-27T08:37:01.165Z,-1.03
2023-03-27T08:40:34.196Z,-0.49
2023-03-27T08:43:57.760Z,-0.59
2023-03-27T08:47:06.506Z,-0.96
2023-03-27T08:50:32.227Z,-0.43
2023-03-27T08:54:08.367Z,-1.02
2023-03-27T08:57:20.280Z,-0.80
2023-03-27T09:00:33.655Z,-0.90
2023-03-27T09:04:00.099Z,-0.57
2023-03-27T09:07:11.545Z,-0.95
2023-03-27T09:10:33.401Z,-0.73
2023-03-27T09:13:47.113Z,-0.81
2023-03-27T09:16:53.500Z,-0.76
2023-03-27T09:20:18.397Z,-0.81
2023-03-27T09:23:29.291Z,-1.09
2023-03-27T09:27:06.738Z,-0.52
2023-03-27T09:30:26.492Z,-0.45
2023-03-27T09:33:41.483Z,-0.88
2023-03-27T09:36:46.913Z,-0.90
2023-03-27T09:39:55.166Z,-0.75
2023-03-27T09:43:09.741Z,-0.76
2023-03-27T09:46:20.299Z,-0.93
2023-03-27T09:49:33.746Z,-1.04
2023-03-27T09:52:40.790Z,-0.62
2023-03-27T09:55:59.006Z,-0.33
2023-03-27T09:59:12.223Z,-0.82
2023-03-27T10:02:20.660Z,-0.76
2023-03-27T10:05:26.036Z,-0.81
2023-03-27T10:08:39.310Z,-0.55
2023-03-27T10:12:07.629Z,-0.90
2023-03-27T10:15:34.051Z,-0.27
2023-03-27T10:18:46.119Z,-0.90
2023-03-27T10:21:54.450Z,-0.92
2023-03-27T10:25:06.120Z,-1.24
2023-03-27T10:28:46.030Z,-0.90
2023-03-27T10:32:01.399Z,-0.84
2023-03-27T10:35:25.095Z,-1.16
2023-03-27T10:38:57.493Z,-1.07
2023-03-27T10:42:34.483Z,-1.02
2023-03-27T10:45:48.384Z,-0.99
2023-03-27T10:48:59.825Z,-0.86
2023-03-27T10:52:15.235Z,-0.90
2023-03-27T10:56:00.895Z,-0.68
2023-03-27T10:59:09.747Z,-0.66
2023-03-27T11:02:21.204Z,-1.36
2023-03-27T11:05:30.587Z,-1.29
2023-03-27T11:08:42.024Z,-1.44
2023-03-27T11:11:50.933Z,-1.29
2023-03-27T11:15:01.038Z,-0.94
2023-03-27T11:18:16.487Z,-1.03
2023-03-27T11:21:37.307Z,-1.20
2023-03-27T11:24:48.327Z,-1.14
2023-03-27T11:28:00.544Z,-1.26
2023-03-27T11:31:13.623Z,-1.29
2023-03-27T11:34:31.175Z,-1.51
2023-03-27T11:37:59.771Z,-1.21
2023-03-27T11:41:15.365Z,-0.89
2023-03-27T11:44:21.685Z,-1.05
2023-03-27T11:48:04.036Z,-1.11
2023-03-27T11:51:23.945Z,-1.39
2023-03-27T11:54:45.258Z,-1.04
2023-03-27T11:58:09.487Z,-1.41
2023-03-27T12:01:27.140Z,-0.81
2023-03-27T12:04:44.952Z,-0.76
2023-03-27T12:08:15.905Z,-0.61
2023-03-27T12:11:25.314Z,-0.86
2023-03-27T12:14:48.071Z,-1.14
2023-03-27T12:18:00.098Z,-1.00
2023-03-27T12:21:13.771Z,-0.75
2023-03-27T12:24:57.135Z,-0.46
2023-03-27T12:28:40.123Z,-0.85
2023-03-27T12:32:30.177Z,-0.71
2023-03-27T12:35:42.791Z,-0.68
2023-03-27T12:38:54.276Z,-0.80
2023-03-27T12:42:01.236Z,-1.17
2023-03-27T12:45:20.026Z,-0.76
2023-03-27T12:48:28.485Z,-0.44
2023-03-27T12:51:47.442Z,-0.58
2023-03-27T12:55:34.235Z,-0.94
2023-03-27T12:58:41.596Z,-0.73
2023-03-27T13:02:42.772Z,-0.80
2023-03-27T13:06:14.382Z,-0.58
2023-03-27T13:09:33.564Z,-0.75
2023-03-27T13:13:00.255Z,-1.09
2023-03-27T13:16:29.250Z,-1.06
2023-03-27T13:19:47.037Z,-1.19
2023-03-27T13:23:09.706Z,-0.96
2023-03-27T13:26:31.195Z,-0.87
2023-03-27T13:29:39.747Z,-0.87
2023-03-27T13:33:14.935Z,-1.09
2023-03-27T13:36:24.768Z,-1.15
2023-03-27T13:39:41.327Z,-0.97
2023-03-27T13:42:49.382Z,-1.30
2023-03-27T13:46:00.086Z,-1.19
2023-03-27T13:49:49.675Z,-1.21
2023-03-27T13:53:13.686Z,-1.25
2023-03-27T13:56:37.768Z,-1.13
2023-03-27T14:00:06.403Z,-1.17
2023-03-27T14:03:51.392Z,-1.05
2023-03-27T14:07:38.481Z,-1.36
2023-03-27T14:11:03.901Z,-1.31
2023-03-27T14:14:38.832Z,-1.39
2023-03-27T14:17:56.928Z,-1.36
2023-03-27T14:21:03.475Z,-1.11
2023-03-27T14:24:30.754Z,-0.96
2023-03-27T14:27:51.779Z,-1.27
2023-03-27T14:30:57.968Z,-1.06
2023-03-27T14:34:24.824Z,-0.94
2023-03-27T14:37:45.052Z,-0.85
2023-03-27T14:41:20.500Z,-1.00
2023-03-27T14:44:34.504Z,-0.88
2023-03-27T14:47:47.985Z,-0.88
2023-03-27T14:50:55.939Z,-0.73
2023-03-27T14:54:06.925Z,-1.19
2023-03-27T14:57:26.188Z,-0.95
2023-03-27T15:00:36.104Z,-0.84
2023-03-27T15:03:41.683Z,-0.70
2023-03-27T15:06:50.130Z,-0.81
2023-03-27T15:10:24.385Z,-0.91
2023-03-27T15:13:49.292Z,-0.74
2023-03-27T15:17:03.002Z,-0.75
2023-03-27T15:20:15.700Z,-0.61
2023-03-27T15:23:22.764Z,-0.33
2023-03-27T15:26:31.709Z,-0.71
2023-03-27T15:29:42.866Z,-0.53
2023-03-27T15:32:52.460Z,-0.77
2023-03-27T15:35:58.621Z,-0.62
2023-03-27T15:39:06.868Z,-0.62
2023-03-27T15:42:14.518Z,-0.64
2023-03-27T15:45:23.025Z,-0.53
2023-03-27T15:48:33.444Z,-0.60
2023-03-27T15:51:41.346Z,-0.51
2023-03-27T15:54:55.882Z,-0.62
2023-03-27T15:58:02.052Z,-0.52
2023-03-27T16:01:18.669Z,-0.59
2023-03-27T16:04:28.386Z,-0.71
2023-03-27T16:07:44.371Z,-0.65
2023-03-27T16:10:49.654Z,-0.88
2023-03-27T16:13:56.900Z,-0.75
2023-03-27T16:17:24.946Z,-0.85
2023-03-27T16:20:37.475Z,-1.03
2023-03-27T16:23:44.350Z,-0.97
2023-03-27T16:26:49.857Z,-1.03
2023-03-27T16:29:55.482Z,-1.16
2023-03-27T16:33:02.764Z,-1.17
2023-03-27T16:36:10.227Z,-0.90
2023-03-27T16:39:15.323Z,-0.97
2023-03-27T16:42:23.466Z,-1.09
2023-03-27T16:45:31.198Z,-1.24
2023-03-27T16:48:37.785Z,-1.18
2023-03-27T16:51:43.635Z,-1.10
2023-03-27T16:54:48.716Z,-1.10
2023-03-27T16:57:55.181Z,-1.27
2023-03-27T17:01:00.780Z,-1.31
2023-03-27T17:04:07.360Z,-1.29
2023-03-27T17:07:13.747Z,-1.22
2023-03-27T17:10:19.926Z,-1.27
2023-03-27T17:13:25.176Z,-1.31
2023-03-27T17:16:30.832Z,-1.47
2023-03-27T17:19:37.709Z,-1.28
2023-03-27T17:22:42.859Z,-1.34
2023-03-27T17:25:48.876Z,-1.24
2023-03-27T17:28:54.224Z,-1.27
2023-03-27T17:32:01.101Z,-1.37
2023-03-27T17:35:08.454Z,-1.27
2023-03-27T17:38:19.113Z,-1.18
2023-03-27T17:41:24.615Z,-1.31
2023-03-27T17:44:29.737Z,-1.24
2023-03-27T17:47:35.236Z,-1.15
2023-03-27T17:50:41.937Z,-1.52
2023-03-27T17:53:47.119Z,-1.30
2023-03-27T17:56:52.211Z,-1.43
2023-03-27T17:59:57.416Z,-1.46
2023-03-27T18:03:02.676Z,-1.27
2023-03-27T18:06:09.735Z,-1.50
2023-03-27T18:09:14.935Z,-1.52
2023-03-27T18:12:20.245Z,-1.46
2023-03-27T18:15:25.535Z,-1.39
2023-03-27T18:18:30.771Z,-1.45
2023-03-27T18:21:37.299Z,-1.44
2023-03-27T18:24:44.420Z,-1.56
2023-03-27T18:27:49.847Z,-1.46
2023-03-27T18:31:02.443Z,-1.49
2023-03-27T18:34:08.303Z,-1.72
2023-03-27T18:37:16.816Z,-1.59
2023-03-27T18:40:39.719Z,-1.67
2023-03-27T18:43:44.836Z,-1.52
2023-03-27T18:46:50.007Z,-1.55
2023-03-27T18:49:56.563Z,-1.51
2023-03-27T18:53:03.171Z,-1.31
2023-03-27T18:56:09.302Z,-1.35
2023-03-27T18:59:14.651Z,-1.73
2023-03-27T19:02:20.544Z,-1.74
2023-03-27T19:05:25.690Z,-1.57
2023-03-27T19:08:32.598Z,-1.49
2023-03-27T19:11:38.403Z,-1.44
2023-03-27T19:15:19.225Z,-1.70
2023-03-27T19:18:43.741Z,-1.47
2023-03-27T19:21:56.930Z,-1.65
2023-03-27T19:25:23.801Z,-1.51
2023-03-27T19:28:28.868Z,-1.46
2023-03-27T19:31:34.083Z,-1.54
2023-03-27T19:34:42.761Z,-1.57
2023-03-27T19:37:48.544Z,-1.52
2023-03-27T19:40:55.264Z,-1.29
2023-03-27T19:44:00.654Z,-1.26
2023-03-27T19:47:07.622Z,-1.57
2023-03-27T19:50:14.642Z,-1.39
2023-03-27T19:53:46.743Z,-1.16
2023-03-27T19:56:53.347Z,-1.24
2023-03-27T19:59:58.411Z,-1.37
2023-03-27T20:03:03.706Z,-1.16
2023-03-27T20:06:12.257Z,-1.20
2023-03-27T20:09:19.503Z,-1.46
2023-03-27T20:12:26.241Z,-1.61
2023-03-27T20:15:32.455Z,-1.59
2023-03-27T20:18:38.143Z,-1.50
2023-03-27T20:21:43.785Z,-1.66
2023-03-27T20:24:52.385Z,-1.38
2023-03-27T20:27:59.079Z,-1.61
2023-03-27T20:31:05.521Z,-1.47
2023-03-27T20:34:11.769Z,-1.50
2023-03-27T20:37:17.444Z,-1.53
2023-03-27T20:40:52.810Z,-1.59
2023-03-27T20:44:03.259Z,-1.47
2023-03-27T20:47:12.393Z,-1.58
2023-03-27T20:50:24.046Z,-1.34
2023-03-27T20:53:34.605Z,-1.59
2023-03-27T20:56:39.893Z,-1.47
2023-03-27T20:59:48.295Z,-1.44
2023-03-27T21:02:53.570Z,-1.53
2023-03-27T21:05:58.905Z,-1.29
2023-03-27T21:09:04.739Z,-1.41
2023-03-27T21:12:12.729Z,-1.35
2023-03-27T21:15:19.435Z,-1.43
2023-03-27T21:18:24.541Z,-1.53
2023-03-27T21:21:31.263Z,-1.37
2023-03-27T21:24:36.314Z,-1.35
2023-03-27T21:27:41.318Z,-1.37
2023-03-27T21:30:49.047Z,-1.41
2023-03-27T21:33:54.325Z,-1.20
2023-03-27T21:36:59.498Z,-1.41
2023-03-27T21:40:05.526Z,-1.52
2023-03-27T21:43:10.791Z,-1.54
2023-03-27T21:46:17.321Z,-1.43
2023-03-27T21:49:22.412Z,-1.42
2023-03-27T21:52:27.618Z,-1.34
2023-03-27T21:55:34.421Z,-1.52
2023-03-27T21:58:39.812Z,-1.59
2023-03-27T22:01:46.441Z,-1.43
2023-03-27T22:04:51.961Z,-1.50
2023-03-27T22:07:57.736Z,-1.41
2023-03-27T22:11:03.383Z,-1.66
2023-03-27T22:14:08.580Z,-1.33
2023-03-27T22:17:15.704Z,-1.31
2023-03-27T22:20:21.409Z,-1.32
2023-03-27T22:23:26.585Z,-1.44
2023-03-27T22:26:32.985Z,-1.36
2023-03-27T22:29:38.076Z,-1.37
2023-03-27T22:32:44.644Z,-1.44
2023-03-27T22:35:50.407Z,-1.53
2023-03-27T22:38:56.047Z,-1.58
2023-03-27T22:42:01.175Z,-1.50
2023-03-27T22:45:07.229Z,-1.43
2023-03-27T22:48:16.429Z,-1.45
2023-03-27T22:51:21.548Z,-1.59
2023-03-27T22:54:26.953Z,-1.45
2023-03-27T22:57:32.327Z,-1.39
2023-03-27T23:00:37.504Z,-1.56
2023-03-27T23:03:44.143Z,-1.75
2023-03-27T23:06:49.401Z,-1.54
2023-03-27T23:09:54.854Z,-1.38
2023-03-27T23:12:59.885Z,-1.68
2023-03-27T23:16:05.247Z,-1.53
2023-03-27T23:19:11.822Z,-1.65
2023-03-27T23:22:17.345Z,-1.62
2023-03-27T23:25:22.523Z,-1.59
2023-03-27T23:28:30.449Z,-1.60
2023-03-27T23:31:35.552Z,-1.59
2023-03-27T23:34:42.257Z,-1.60
2023-03-27T23:37:47.816Z,-1.58
2023-03-27T23:40:57.791Z,-1.67
2023-03-27T23:44:02.851Z,-1.47
2023-03-27T23:47:08.221Z,-1.72
2023-03-27T23:50:14.724Z,-1.82
2023-03-27T23:53:19.915Z,-1.67
2023-03-27T23:56:25.347Z,-1.62
2023-03-27T23:59:38.142Z,-1.61
